createdAt,value
2017-09-15T00:00:03.665Z,11.30
2017-09-15T00:02:36.109Z,11.20
2017-09-15T00:05:02.134Z,11.20
2017-09-15T00:07:28.173Z,11.20
2017-09-15T00:09:54.203Z,11.20
2017-09-15T00:12:21.173Z,11.20
2017-09-15T00:14:48.925Z,11.10
2017-09-15T00:17:14.945Z,11.10
2017-09-15T00:19:40.978Z,11.10
2017-09-15T00:22:10.998Z,11.10
2017-09-15T00:24:37.030Z,11.00
2017-09-15T00:27:07.042Z,10.90
2017-09-15T00:29:33.089Z,10.90
2017-09-15T00:32:14.287Z,10.90
2017-09-15T00:34:42.253Z,10.90
2017-09-15T00:37:08.185Z,10.90
2017-09-15T00:39:44.851Z,11.00
2017-09-15T00:42:33.237Z,11.00
2017-09-15T00:45:13.962Z,11.00
2017-09-15T00:47:53.709Z,11.00
2017-09-15T00:50:30.472Z,10.80
2017-09-15T00:53:01.073Z,10.70
2017-09-15T00:55:27.112Z,10.70
2017-09-15T00:57:59.810Z,10.80
2017-09-15T01:00:27.577Z,10.70
2017-09-15T01:02:56.268Z,10.50
2017-09-15T01:05:44.365Z,10.50
2017-09-15T01:08:14.913Z,10.50
2017-09-15T01:10:40.971Z,10.50
2017-09-15T01:13:13.750Z,10.60
2017-09-15T01:15:47.047Z,10.50
2017-09-15T01:18:13.782Z,10.40
2017-09-15T01:20:51.505Z,10.40
2017-09-15T01:23:19.571Z,10.40
2017-09-15T01:25:46.242Z,10.40
2017-09-15T01:28:14.273Z,10.40
2017-09-15T01:30:44.301Z,10.30
2017-09-15T01:33:11.038Z,10.40
2017-09-15T01:35:52.441Z,10.40
2017-09-15T01:38:36.406Z,10.40
2017-09-15T01:41:02.398Z,10.40
2017-09-15T01:43:31.214Z,10.40
2017-09-15T01:45:58.235Z,10.40
2017-09-15T01:48:30.974Z,10.40
2017-09-15T01:51:15.602Z,10.40
2017-09-15T01:53:48.166Z,10.40
2017-09-15T01:56:16.225Z,10.50
2017-09-15T01:58:57.128Z,10.50
2017-09-15T02:01:23.049Z,10.50
2017-09-15T02:03:49.037Z,10.50
2017-09-15T02:06:20.946Z,10.60
2017-09-15T02:08:46.943Z,10.60
2017-09-15T02:11:17.050Z,10.70
2017-09-15T02:13:46.562Z,10.70
2017-09-15T02:16:13.521Z,10.70
2017-09-15T02:18:51.371Z,10.60
2017-09-15T02:21:24.832Z,10.70
2017-09-15T02:23:51.561Z,10.40
2017-09-15T02:26:21.877Z,10.50
2017-09-15T02:28:47.922Z,10.50
2017-09-15T02:31:34.781Z,10.50
2017-09-15T02:34:01.774Z,10.50
2017-09-15T02:36:40.199Z,10.60
2017-09-15T02:39:21.418Z,10.70
2017-09-15T02:42:09.054Z,10.70
2017-09-15T02:44:41.805Z,10.80
2017-09-15T02:47:15.481Z,10.80
2017-09-15T02:49:53.090Z,10.90
2017-09-15T02:52:21.026Z,10.90
2017-09-15T02:54:51.454Z,11.00
2017-09-15T02:57:17.487Z,11.00
2017-09-15T02:59:50.801Z,11.00
2017-09-15T03:02:17.461Z,11.00
2017-09-15T03:04:54.349Z,11.00
2017-09-15T03:07:20.268Z,11.00
2017-09-15T03:09:48.205Z,11.10
2017-09-15T03:12:18.021Z,11.10
2017-09-15T03:14:45.994Z,11.20
2017-09-15T03:17:12.944Z,11.00
2017-09-15T03:19:49.326Z,11.00
2017-09-15T03:22:19.978Z,11.20
2017-09-15T03:24:58.174Z,11.10
2017-09-15T03:27:25.922Z,11.30
2017-09-15T03:29:56.242Z,11.40
2017-09-15T03:32:25.778Z,11.30
2017-09-15T03:34:52.493Z,11.30
2017-09-15T03:37:18.534Z,11.30
2017-09-15T03:39:44.570Z,11.40
2017-09-15T03:42:10.534Z,11.40
2017-09-15T03:44:37.542Z,11.40
2017-09-15T03:47:11.887Z,11.30
2017-09-15T03:49:47.328Z,11.10
2017-09-15T03:52:16.093Z,11.00
2017-09-15T03:54:42.126Z,11.00
2017-09-15T03:57:22.109Z,11.00
2017-09-15T03:59:55.809Z,10.90
2017-09-15T04:02:24.969Z,10.90
2017-09-15T04:05:08.446Z,10.80
2017-09-15T04:07:45.293Z,10.90
2017-09-15T04:10:13.261Z,10.90
2017-09-15T04:12:42.558Z,11.00
2017-09-15T04:15:14.866Z,11.10
2017-09-15T04:17:51.326Z,11.20
2017-09-15T04:20:19.078Z,11.20
2017-09-15T04:22:52.382Z,11.10
2017-09-15T04:25:20.139Z,11.00
2017-09-15T04:28:00.726Z,10.80
2017-09-15T04:30:33.721Z,10.80
2017-09-15T04:33:01.645Z,10.70
2017-09-15T04:35:27.679Z,10.70
2017-09-15T04:37:53.622Z,10.80
2017-09-15T04:40:20.374Z,10.80
2017-09-15T04:42:50.273Z,10.80
2017-09-15T04:45:16.319Z,10.80
2017-09-15T04:47:54.017Z,10.90
2017-09-15T04:50:23.901Z,10.90
2017-09-15T04:53:00.146Z,10.80
2017-09-15T04:55:46.645Z,10.80
2017-09-15T04:58:13.413Z,10.80
2017-09-15T05:00:45.418Z,10.80
2017-09-15T05:03:16.222Z,10.70
2017-09-15T05:05:42.262Z,10.70
2017-09-15T05:08:08.306Z,10.70
2017-09-15T05:10:35.034Z,10.70
2017-09-15T05:13:11.112Z,10.70
2017-09-15T05:15:38.862Z,10.80
2017-09-15T05:18:12.390Z,10.80
2017-09-15T05:20:40.126Z,10.90
2017-09-15T05:23:06.054Z,10.90
2017-09-15T05:25:38.358Z,10.90
2017-09-15T05:28:07.947Z,10.90
2017-09-15T05:30:38.474Z,10.90
2017-09-15T05:33:11.997Z,10.90
2017-09-15T05:35:41.578Z,10.90
2017-09-15T05:38:07.506Z,11.00
2017-09-15T05:40:33.546Z,11.00
2017-09-15T05:43:10.363Z,11.10
2017-09-15T05:45:40.433Z,11.10
2017-09-15T05:48:06.476Z,11.20
2017-09-15T05:50:32.497Z,11.20
2017-09-15T05:53:02.207Z,11.20
2017-09-15T05:55:28.134Z,11.20
2017-09-15T05:58:01.969Z,11.10
2017-09-15T06:00:34.426Z,11.20
2017-09-15T06:03:11.108Z,11.20
2017-09-15T06:05:46.670Z,11.20
2017-09-15T06:08:33.420Z,11.20
2017-09-15T06:10:59.551Z,11.20
2017-09-15T06:13:36.602Z,11.30
2017-09-15T06:16:03.618Z,11.30
2017-09-15T06:18:29.634Z,11.40
2017-09-15T06:20:57.605Z,11.40
2017-09-15T06:23:26.707Z,11.50
2017-09-15T06:25:54.708Z,11.50
2017-09-15T06:28:25.721Z,11.60
2017-09-15T06:31:00.173Z,11.60
2017-09-15T06:33:37.556Z,11.60
2017-09-15T06:36:05.318Z,11.50
2017-09-15T06:38:34.102Z,11.50
2017-09-15T06:41:01.866Z,11.50
2017-09-15T06:43:27.889Z,11.50
2017-09-15T06:45:55.870Z,11.50
2017-09-15T06:48:21.931Z,11.50
2017-09-15T06:51:08.678Z,11.50
2017-09-15T06:53:34.647Z,11.40
2017-09-15T06:56:03.421Z,11.50
2017-09-15T06:58:33.862Z,11.50
2017-09-15T07:01:05.093Z,11.50
2017-09-15T07:03:31.053Z,11.40
2017-09-15T07:06:07.918Z,11.50
2017-09-15T07:08:40.485Z,11.50
2017-09-15T07:11:08.462Z,11.50
2017-09-15T07:13:38.573Z,11.70
2017-09-15T07:16:04.650Z,11.70
2017-09-15T07:18:31.667Z,11.70
2017-09-15T07:20:59.434Z,11.70
2017-09-15T07:23:27.401Z,11.70
2017-09-15T07:25:55.385Z,11.80
2017-09-15T07:28:25.402Z,12.00
2017-09-15T07:31:00.054Z,12.10
2017-09-15T07:33:33.860Z,12.00
2017-09-15T07:36:05.598Z,12.10
2017-09-15T07:38:39.209Z,12.30
2017-09-15T07:41:17.832Z,12.20
2017-09-15T07:43:45.584Z,12.20
2017-09-15T07:46:11.610Z,12.20
2017-09-15T07:48:52.518Z,12.20
2017-09-15T07:51:36.362Z,12.20
2017-09-15T07:54:02.394Z,12.20
2017-09-15T07:56:28.391Z,12.20
2017-09-15T07:58:56.370Z,12.30
2017-09-15T08:01:22.309Z,12.30
2017-09-15T08:03:48.248Z,12.40
2017-09-15T08:06:14.197Z,12.30
2017-09-15T08:08:42.209Z,12.40
2017-09-15T08:11:08.141Z,12.50
2017-09-15T08:13:36.950Z,12.50
2017-09-15T08:16:02.881Z,12.50
2017-09-15T08:18:28.809Z,12.60
2017-09-15T08:20:54.738Z,12.60
2017-09-15T08:23:20.670Z,12.70
2017-09-15T08:25:46.622Z,12.90
2017-09-15T08:28:15.865Z,12.90
2017-09-15T08:30:41.785Z,12.90
2017-09-15T08:33:08.714Z,12.90
2017-09-15T08:35:34.652Z,12.90
2017-09-15T08:38:00.573Z,12.90
2017-09-15T08:40:26.509Z,12.80
2017-09-15T08:42:52.472Z,12.90
2017-09-15T08:45:18.410Z,12.90
2017-09-15T08:47:44.346Z,13.00
2017-09-15T08:50:10.327Z,13.10
2017-09-15T08:52:36.257Z,13.10
2017-09-15T08:55:02.207Z,13.20
2017-09-15T08:57:28.865Z,13.10
2017-09-15T08:59:54.809Z,13.10
2017-09-15T09:02:20.730Z,13.20
2017-09-15T09:04:46.658Z,13.20
2017-09-15T09:07:12.583Z,13.30
2017-09-15T09:09:38.511Z,13.50
2017-09-15T09:12:04.511Z,13.60
2017-09-15T09:14:31.201Z,13.70
2017-09-15T09:19:53.670Z,13.80
2017-09-15T09:22:30.188Z,14.00
2017-09-15T09:25:06.655Z,14.10
2017-09-15T09:30:27.298Z,14.10
2017-09-15T09:32:56.949Z,14.10
2017-09-15T09:35:22.982Z,14.20
2017-09-15T09:37:49.731Z,14.40
2017-09-15T09:40:26.609Z,14.40
2017-09-15T09:43:00.117Z,14.80
2017-09-15T09:45:30.647Z,15.20
2017-09-15T09:47:57.382Z,15.40
2017-09-15T09:50:23.424Z,15.30
2017-09-15T09:52:55.881Z,15.30
2017-09-15T09:55:21.897Z,15.20
2017-09-15T09:57:47.862Z,15.30
2017-09-15T10:00:15.617Z,15.40
2017-09-15T10:02:42.361Z,15.50
2017-09-15T10:08:04.727Z,15.50
2017-09-15T10:10:33.503Z,15.30
2017-09-15T10:12:59.470Z,15.20
2017-09-15T10:15:25.402Z,15.00
2017-09-15T10:17:51.322Z,15.10
2017-09-15T10:20:17.249Z,15.10
2017-09-15T10:22:43.181Z,15.00
2017-09-15T10:25:09.237Z,15.00
2017-09-15T10:27:35.214Z,15.00
2017-09-15T10:30:03.912Z,15.10
2017-09-15T10:32:29.837Z,15.10
2017-09-15T10:34:56.497Z,15.10
2017-09-15T10:37:22.409Z,15.10
2017-09-15T10:39:49.086Z,15.20
2017-09-15T10:42:15.010Z,15.20
2017-09-15T10:44:42.007Z,15.10
2017-09-15T10:47:25.684Z,15.30
2017-09-15T10:52:46.745Z,15.70
2017-09-15T10:55:12.778Z,15.70
2017-09-15T10:57:45.829Z,16.00
2017-09-15T11:00:11.809Z,16.20
2017-09-15T11:02:38.562Z,16.90
2017-09-15T11:05:05.333Z,17.00
2017-09-15T11:07:32.377Z,17.00
2017-09-15T11:10:06.378Z,16.90
2017-09-15T11:12:34.135Z,16.80
2017-09-15T11:15:00.072Z,16.70
2017-09-15T11:17:27.830Z,16.20
2017-09-15T11:19:53.865Z,16.20
2017-09-15T11:22:19.789Z,16.10
2017-09-15T11:24:46.742Z,16.10
2017-09-15T11:27:24.238Z,16.30
2017-09-15T11:29:53.121Z,16.40
2017-09-15T11:32:21.797Z,16.40
2017-09-15T11:34:47.825Z,16.40
2017-09-15T11:37:13.758Z,16.60
2017-09-15T11:39:41.759Z,16.40
2017-09-15T11:42:08.474Z,16.30
2017-09-15T11:44:34.517Z,16.30
2017-09-15T11:47:02.282Z,16.70
2017-09-15T11:49:28.321Z,16.70
2017-09-15T11:51:55.054Z,17.40
2017-09-15T11:54:21.094Z,17.40
2017-09-15T11:56:47.757Z,17.20
2017-09-15T11:59:20.314Z,17.40
2017-09-15T12:02:00.763Z,17.40
2017-09-15T12:04:26.801Z,17.40
2017-09-15T12:06:54.565Z,17.10
2017-09-15T12:09:20.505Z,17.10
2017-09-15T12:11:47.186Z,16.50
2017-09-15T12:14:20.449Z,16.50
2017-09-15T12:16:50.972Z,16.20
2017-09-15T12:19:17.638Z,15.90
2017-09-15T12:21:43.603Z,15.80
2017-09-15T12:24:09.530Z,15.10
2017-09-15T12:26:35.453Z,14.10
2017-09-15T12:29:01.379Z,13.40
2017-09-15T12:31:27.311Z,13.10
2017-09-15T12:33:53.249Z,12.90
2017-09-15T12:36:19.278Z,12.60
2017-09-15T12:38:45.220Z,12.50
2017-09-15T12:41:11.153Z,12.50
2017-09-15T12:43:37.085Z,12.60
2017-09-15T12:46:03.024Z,12.70
2017-09-15T12:48:30.686Z,13.20
2017-09-15T12:50:57.378Z,13.40
2017-09-15T12:53:23.326Z,13.40
2017-09-15T12:55:49.258Z,13.70
2017-09-15T12:58:15.193Z,13.80
2017-09-15T13:00:41.162Z,14.00
2017-09-15T13:03:07.098Z,14.50
2017-09-15T13:05:33.058Z,14.80
2017-09-15T13:07:58.983Z,15.00
2017-09-15T13:10:24.905Z,15.30
2017-09-15T13:12:50.834Z,15.40
2017-09-15T13:15:17.955Z,15.60
2017-09-15T13:17:43.877Z,15.70
2017-09-15T13:20:10.558Z,16.00
2017-09-15T13:22:36.541Z,16.00
2017-09-15T13:25:03.201Z,16.40
2017-09-15T13:27:29.129Z,16.40
2017-09-15T13:29:55.053Z,16.60
2017-09-15T13:32:20.990Z,16.80
2017-09-15T13:34:46.918Z,17.00
2017-09-15T13:37:12.862Z,17.20
2017-09-15T13:39:38.794Z,17.40
2017-09-15T13:42:04.737Z,17.80
2017-09-15T13:44:30.659Z,18.20
2017-09-15T13:46:56.603Z,18.70
2017-09-15T13:49:22.533Z,19.10
2017-09-15T13:51:49.472Z,19.00
2017-09-15T13:54:15.453Z,19.00
2017-09-15T13:56:41.397Z,19.10
2017-09-15T13:59:07.326Z,19.20
2017-09-15T14:01:33.259Z,19.10
2017-09-15T14:03:59.202Z,19.30
2017-09-15T14:06:25.131Z,19.60
2017-09-15T14:08:51.070Z,19.60
2017-09-15T14:11:17.017Z,19.40
2017-09-15T14:13:47.130Z,19.40
2017-09-15T14:16:13.093Z,19.30
2017-09-15T14:18:39.032Z,19.40
2017-09-15T14:21:04.986Z,19.20
2017-09-15T14:23:30.917Z,18.90
2017-09-15T14:25:56.865Z,18.70
2017-09-15T14:28:22.810Z,18.30
2017-09-15T14:30:49.501Z,18.00
2017-09-15T14:33:15.434Z,18.00
2017-09-15T14:35:41.362Z,17.90
2017-09-15T14:38:07.324Z,17.90
2017-09-15T14:40:33.262Z,17.90
2017-09-15T14:42:59.934Z,17.90
2017-09-15T14:45:25.894Z,17.90
2017-09-15T14:47:51.822Z,17.70
2017-09-15T14:50:17.756Z,17.80
2017-09-15T14:52:43.689Z,18.10
2017-09-15T14:55:09.630Z,18.40
2017-09-15T14:57:35.565Z,18.50
2017-09-15T15:00:01.506Z,18.50
2017-09-15T15:02:29.173Z,18.40
2017-09-15T15:04:59.506Z,18.50
2017-09-15T15:07:30.041Z,18.90
2017-09-15T15:09:56.730Z,19.10
2017-09-15T15:12:22.670Z,19.10
2017-09-15T15:14:48.605Z,19.50
2017-09-15T15:17:14.533Z,19.70
2017-09-15T15:19:40.552Z,19.70
2017-09-15T15:22:06.457Z,19.70
2017-09-15T15:24:32.414Z,20.00
2017-09-15T15:26:58.330Z,20.10
2017-09-15T15:29:24.257Z,20.30
2017-09-15T15:31:50.221Z,20.30
2017-09-15T15:34:19.919Z,20.40
2017-09-15T15:36:47.377Z,20.40
2017-09-15T15:39:13.315Z,20.40
2017-09-15T15:41:39.249Z,20.00
2017-09-15T15:44:06.914Z,19.50
2017-09-15T15:46:37.021Z,19.40
2017-09-15T15:49:02.966Z,19.40
2017-09-15T15:51:29.630Z,18.40
2017-09-15T15:53:55.567Z,18.40
2017-09-15T15:56:21.513Z,18.50
2017-09-15T15:58:47.458Z,18.30
2017-09-15T16:01:13.390Z,18.10
2017-09-15T16:03:39.362Z,17.80
2017-09-15T16:06:06.027Z,16.80
2017-09-15T16:08:31.984Z,16.70
2017-09-15T16:10:57.969Z,16.30
2017-09-15T16:13:23.899Z,15.90
2017-09-15T16:15:49.822Z,15.70
2017-09-15T16:18:15.754Z,15.60
2017-09-15T16:20:41.677Z,15.30
2017-09-15T16:23:07.619Z,15.10
2017-09-15T16:25:33.542Z,14.90
2017-09-15T16:27:59.523Z,15.00
2017-09-15T16:30:25.449Z,14.90
2017-09-15T16:32:54.986Z,15.30
2017-09-15T16:35:22.673Z,15.60
2017-09-15T16:37:48.546Z,15.60
2017-09-15T16:40:20.505Z,15.80
2017-09-15T16:42:52.611Z,16.10
2017-09-15T16:45:35.581Z,16.30
2017-09-15T16:48:07.638Z,16.30
2017-09-15T16:50:33.570Z,16.30
2017-09-15T16:52:59.490Z,16.30
2017-09-15T16:55:25.429Z,15.90
2017-09-15T16:57:51.381Z,15.60
2017-09-15T17:00:17.310Z,15.40
2017-09-15T17:02:43.244Z,15.10
2017-09-15T17:05:09.169Z,14.90
2017-09-15T17:07:35.118Z,14.60
2017-09-15T17:10:02.790Z,14.20
2017-09-15T17:12:28.725Z,14.20
2017-09-15T17:14:54.647Z,14.20
2017-09-15T17:17:20.582Z,14.20
2017-09-15T17:19:46.506Z,14.10
2017-09-15T17:22:12.445Z,13.90
2017-09-15T17:24:38.361Z,13.90
2017-09-15T17:27:04.307Z,13.80
2017-09-15T17:29:30.230Z,13.70
2017-09-15T17:31:56.166Z,13.70
2017-09-15T17:34:22.100Z,13.60
2017-09-15T17:36:48.019Z,13.50
2017-09-15T17:39:13.994Z,13.50
2017-09-15T17:41:40.694Z,13.70
2017-09-15T17:44:06.655Z,13.70
2017-09-15T17:46:32.598Z,13.60
2017-09-15T17:48:59.275Z,13.50
2017-09-15T17:51:25.206Z,13.50
2017-09-15T17:53:51.134Z,13.40
2017-09-15T17:56:17.094Z,13.40
2017-09-15T17:58:43.074Z,13.50
2017-09-15T18:01:09.001Z,13.40
2017-09-15T18:03:34.958Z,13.50
2017-09-15T18:06:00.877Z,13.40
2017-09-15T18:08:26.801Z,13.40
2017-09-15T18:10:52.726Z,13.40
2017-09-15T18:13:18.661Z,13.30
2017-09-15T18:15:49.264Z,13.30
2017-09-15T18:18:19.670Z,13.20
2017-09-15T18:20:45.593Z,13.20
2017-09-15T18:23:11.522Z,13.20
2017-09-15T18:25:37.437Z,13.20
2017-09-15T18:28:03.386Z,13.20
2017-09-15T18:30:29.316Z,13.20
2017-09-15T18:32:59.297Z,12.90
2017-09-15T18:35:25.254Z,12.90
2017-09-15T18:37:51.194Z,12.90
2017-09-15T18:40:17.862Z,12.70
2017-09-15T18:42:43.822Z,12.70
2017-09-15T18:45:09.754Z,12.60
2017-09-15T18:47:36.417Z,12.70
2017-09-15T18:50:05.634Z,12.60
2017-09-15T18:52:32.306Z,12.70
2017-09-15T18:54:58.253Z,12.60
2017-09-15T18:57:24.178Z,12.60
2017-09-15T18:59:50.110Z,12.70
2017-09-15T19:02:16.111Z,12.70
2017-09-15T19:04:42.045Z,12.80
2017-09-15T19:07:07.958Z,12.90
2017-09-15T19:09:34.638Z,12.90
2017-09-15T19:12:00.577Z,12.90
2017-09-15T19:14:26.513Z,12.90
2017-09-15T19:16:52.433Z,13.00
2017-09-15T19:19:18.389Z,13.00
2017-09-15T19:21:44.330Z,13.10
2017-09-15T19:24:11.006Z,13.10
2017-09-15T19:26:36.997Z,13.10
2017-09-15T19:29:03.678Z,13.00
2017-09-15T19:31:29.603Z,13.00
2017-09-15T19:33:55.548Z,12.90
2017-09-15T19:36:21.470Z,12.90
2017-09-15T19:38:47.409Z,12.80
2017-09-15T19:41:13.353Z,12.70
2017-09-15T19:43:39.284Z,12.60
2017-09-15T19:46:05.231Z,12.70
2017-09-15T19:48:35.149Z,12.60
2017-09-15T19:51:01.840Z,12.40
2017-09-15T19:53:27.790Z,12.40
2017-09-15T19:55:53.721Z,12.30
2017-09-15T19:58:19.702Z,12.30
2017-09-15T20:00:45.650Z,12.20
2017-09-15T20:03:11.574Z,12.20
2017-09-15T20:05:37.510Z,12.10
2017-09-15T20:08:03.455Z,12.20
2017-09-15T20:10:29.397Z,12.30
2017-09-15T20:12:55.358Z,12.30
2017-09-15T20:15:21.299Z,12.30
2017-09-15T20:17:47.245Z,12.30
2017-09-15T20:20:13.189Z,12.40
2017-09-15T20:22:39.125Z,12.30
2017-09-15T20:25:05.045Z,12.30
2017-09-15T20:27:34.720Z,12.30
2017-09-15T20:30:00.660Z,12.20
2017-09-15T20:32:26.586Z,12.20
2017-09-15T20:34:52.533Z,12.20
2017-09-15T20:37:18.454Z,12.20
2017-09-15T20:39:44.399Z,12.10
2017-09-15T20:42:10.342Z,12.10
2017-09-15T20:44:36.273Z,12.10
2017-09-15T20:47:06.714Z,11.90
2017-09-15T20:49:37.263Z,11.90
2017-09-15T20:52:03.997Z,11.80
2017-09-15T20:54:31.746Z,11.70
2017-09-15T20:56:57.777Z,11.70
2017-09-15T20:59:23.715Z,11.70
2017-09-15T21:01:50.391Z,11.60
2017-09-15T21:04:16.329Z,11.60
2017-09-15T21:06:42.258Z,11.50
2017-09-15T21:09:08.185Z,11.50
2017-09-15T21:11:34.119Z,11.40
2017-09-15T21:14:00.070Z,11.40
2017-09-15T21:16:29.511Z,11.40
2017-09-15T21:19:00.338Z,11.40
2017-09-15T21:21:30.050Z,11.40
2017-09-15T21:24:15.345Z,11.40
2017-09-15T21:26:49.452Z,11.20
2017-09-15T21:29:16.133Z,11.20
2017-09-15T21:31:42.102Z,11.20
2017-09-15T21:34:14.134Z,11.20
2017-09-15T21:36:46.673Z,11.10
2017-09-15T21:39:26.021Z,11.10
2017-09-15T21:42:03.598Z,11.10
2017-09-15T21:44:35.131Z,11.00
2017-09-15T21:47:22.621Z,11.00
2017-09-15T21:49:49.606Z,11.00
2017-09-15T21:52:29.073Z,10.90
2017-09-15T21:54:56.104Z,10.90
2017-09-15T21:57:35.242Z,10.80
2017-09-15T22:00:09.879Z,10.80
2017-09-15T22:02:39.377Z,10.80
2017-09-15T22:05:16.037Z,10.70
2017-09-15T22:07:47.589Z,10.60
2017-09-15T22:10:25.698Z,10.70
2017-09-15T22:12:58.491Z,10.70
2017-09-15T22:15:46.062Z,10.60
2017-09-15T22:18:12.011Z,10.60
2017-09-15T22:20:44.926Z,10.60
2017-09-15T22:23:24.485Z,10.50
2017-09-15T22:26:10.593Z,10.50
2017-09-15T22:28:36.598Z,10.40
2017-09-15T22:31:16.850Z,10.40
2017-09-15T22:33:43.885Z,10.40
2017-09-15T22:36:13.773Z,10.40
2017-09-15T22:38:39.797Z,10.30
2017-09-15T22:41:05.842Z,10.30
2017-09-15T22:43:32.578Z,10.30
2017-09-15T22:45:58.605Z,10.30
2017-09-15T22:48:24.644Z,10.20
2017-09-15T22:50:54.261Z,10.00
2017-09-15T22:53:21.941Z,9.70
2017-09-15T22:55:55.037Z,9.80
2017-09-15T22:58:25.757Z,9.80
2017-09-15T23:00:55.367Z,9.90
2017-09-15T23:03:23.134Z,9.90
2017-09-15T23:06:03.834Z,9.90
2017-09-15T23:08:36.890Z,9.90
2017-09-15T23:11:09.794Z,9.90
2017-09-15T23:13:47.477Z,9.90
2017-09-15T23:16:20.890Z,9.90
2017-09-15T23:18:58.461Z,9.90
2017-09-15T23:21:26.225Z,9.90
2017-09-15T23:23:57.674Z,9.90
2017-09-15T23:26:30.191Z,9.90
2017-09-15T23:28:56.145Z,9.80
2017-09-15T23:31:22.067Z,9.80
2017-09-15T23:33:54.911Z,9.90
2017-09-15T23:36:23.674Z,9.90
2017-09-15T23:38:49.713Z,9.80
2017-09-15T23:41:15.742Z,9.80
2017-09-15T23:43:45.562Z,9.80
2017-09-15T23:46:12.505Z,9.70
2017-09-15T23:48:38.540Z,9.70
2017-09-15T23:51:10.726Z,9.70
2017-09-15T23:53:46.184Z,9.70
2017-09-15T23:56:18.014Z,9.70
2017-09-15T23:58:43.942Z,9.70
